createdAt,value
2022-11-10T00:01:08.922Z,6.03
2022-11-10T00:03:08.906Z,6.1
2022-11-10T00:05:09.138Z,6.12
2022-11-10T00:07:08.960Z,6.21
2022-11-10T00:09:08.921Z,6.23
2022-11-10T00:11:08.989Z,6.28
2022-11-10T00:13:08.867Z,6.29
2022-11-10T00:16:10.407Z,6.19
2022-11-10T00:18:10.363Z,6.15
2022-11-10T00:20:10.374Z,5.9
2022-11-10T00:22:10.369Z,6.03
2022-11-10T00:24:10.383Z,5.9
2022-11-10T00:26:10.357Z,5.96
2022-11-10T00:28:10.359Z,6.1
2022-11-10T00:31:16.186Z,6.22
2022-11-10T00:33:16.181Z,6.04
2022-11-10T00:35:16.220Z,6
2022-11-10T00:37:16.182Z,6.04
2022-11-10T00:39:16.211Z,6.08
2022-11-10T00:41:16.179Z,6.12
2022-11-10T00:43:16.164Z,5.68
2022-11-10T00:46:43.328Z,5.67
2022-11-10T00:48:43.326Z,5.88
2022-11-10T00:50:43.344Z,5.99
2022-11-10T00:52:43.367Z,6.06
2022-11-10T00:54:43.365Z,6.09
2022-11-10T00:56:43.316Z,6.11
2022-11-10T00:58:43.330Z,6.1
2022-11-10T01:02:12.754Z,6.09
2022-11-10T01:04:12.766Z,5.99
2022-11-10T01:06:12.784Z,6.09
2022-11-10T01:08:12.787Z,6.18
2022-11-10T01:10:12.749Z,6.07
2022-11-10T01:12:12.813Z,6.07
2022-11-10T01:14:12.756Z,6.23
2022-11-10T01:16:46.071Z,6.3
2022-11-10T01:18:46.064Z,6.16
2022-11-10T01:20:46.072Z,6
2022-11-10T01:22:46.127Z,6.18
2022-11-10T01:24:46.057Z,6.38
2022-11-10T01:26:46.059Z,6.39
2022-11-10T01:28:46.097Z,6.48
2022-11-10T01:31:45.814Z,6.55
2022-11-10T01:33:45.812Z,6.57
2022-11-10T01:35:45.803Z,6.43
2022-11-10T01:37:46.026Z,6.37
2022-11-10T01:39:45.875Z,6.07
2022-11-10T01:41:45.790Z,6.14
2022-11-10T01:43:45.849Z,6.32
2022-11-10T01:47:02.646Z,6.4
2022-11-10T01:49:02.998Z,6.25
2022-11-10T01:51:02.628Z,6.26
2022-11-10T01:53:02.636Z,6.35
2022-11-10T01:55:02.681Z,6.49
2022-11-10T01:57:02.612Z,6.5
2022-11-10T01:59:02.641Z,6.52
2022-11-10T02:02:22.702Z,6.25
2022-11-10T02:04:22.641Z,6.37
2022-11-10T02:06:22.710Z,6.36
2022-11-10T02:08:22.690Z,6.27
2022-11-10T02:10:22.707Z,6.22
2022-11-10T02:12:22.691Z,6.16
2022-11-10T02:14:22.683Z,6.21
2022-11-10T02:17:15.932Z,6.37
2022-11-10T02:19:15.705Z,6.23
2022-11-10T02:21:15.754Z,6.22
2022-11-10T02:23:15.765Z,6.22
2022-11-10T02:25:15.691Z,6.25
2022-11-10T02:27:15.726Z,6.34
2022-11-10T02:29:15.709Z,6.54
2022-11-10T02:31:15.754Z,6.54
2022-11-10T02:33:14.556Z,6.29
2022-11-10T02:35:14.550Z,6.35
2022-11-10T02:37:14.611Z,6.5
2022-11-10T02:39:14.592Z,6.39
2022-11-10T02:41:14.555Z,6.27
2022-11-10T02:43:14.596Z,6.21
2022-11-10T02:45:14.587Z,6.25
2022-11-10T02:48:15.758Z,6.48
2022-11-10T02:50:15.727Z,6.4
2022-11-10T02:52:15.757Z,6.29
2022-11-10T02:54:15.764Z,6.01
2022-11-10T02:56:15.771Z,5.79
2022-11-10T02:58:15.763Z,5.91
2022-11-10T03:00:15.727Z,5.91
2022-11-10T03:02:42.570Z,5.75
2022-11-10T03:04:42.617Z,5.74
2022-11-10T03:06:42.604Z,5.84
2022-11-10T03:08:42.561Z,6.09
2022-11-10T03:10:42.569Z,6.11
2022-11-10T03:12:42.571Z,6.06
2022-11-10T03:14:42.630Z,6.32
2022-11-10T03:16:42.590Z,6.24
2022-11-10T03:18:15.100Z,6.19
2022-11-10T03:20:15.109Z,6.08
2022-11-10T03:22:15.154Z,6.2
2022-11-10T03:24:15.141Z,6.17
2022-11-10T03:26:15.118Z,6.16
2022-11-10T03:28:15.104Z,5.94
2022-11-10T03:30:15.098Z,5.94
2022-11-10T03:33:00.086Z,6.09
2022-11-10T03:35:00.076Z,6.28
2022-11-10T03:37:00.026Z,6.46
2022-11-10T03:39:00.033Z,6.48
2022-11-10T03:43:00.010Z,6.65
2022-11-10T03:45:00.074Z,6.64
2022-11-10T03:47:00.236Z,6.61
2022-11-10T03:48:16.292Z,6.63
2022-11-10T03:50:16.308Z,6.68
2022-11-10T03:52:16.283Z,6.74
2022-11-10T03:54:16.273Z,6.54
2022-11-10T03:56:16.308Z,6.3
2022-11-10T03:58:16.261Z,6.07
2022-11-10T04:00:16.465Z,5.98
2022-11-10T04:04:07.036Z,5.92
2022-11-10T04:06:07.062Z,5.76
2022-11-10T04:08:06.997Z,5.78
2022-11-10T04:10:07.022Z,6.04
2022-11-10T04:12:07.038Z,6.32
2022-11-10T04:14:07.013Z,6.5
2022-11-10T04:16:07.000Z,6.72
2022-11-10T04:18:48.941Z,6.79
2022-11-10T04:20:48.930Z,6.72
2022-11-10T04:22:48.924Z,6.77
2022-11-10T04:24:48.886Z,6.88
2022-11-10T04:26:48.875Z,6.81
2022-11-10T04:28:48.912Z,6.5
2022-11-10T04:30:48.870Z,6.4
2022-11-10T04:34:16.332Z,6.47
2022-11-10T04:36:16.319Z,6.55
2022-11-10T04:38:16.296Z,6.73
2022-11-10T04:40:16.299Z,6.75
2022-11-10T04:42:16.325Z,6.74
2022-11-10T04:44:16.296Z,6.76
2022-11-10T04:46:16.292Z,6.69
2022-11-10T04:49:23.088Z,6.59
2022-11-10T04:51:23.192Z,6.63
2022-11-10T04:53:23.402Z,6.62
2022-11-10T04:55:23.060Z,6.59
2022-11-10T04:57:23.111Z,6.81
2022-11-10T04:59:23.053Z,6.92
2022-11-10T05:01:23.191Z,7.05
2022-11-10T05:04:18.890Z,6.89
2022-11-10T05:06:18.556Z,6.75
2022-11-10T05:08:18.466Z,6.61
2022-11-10T05:10:18.380Z,6.6
2022-11-10T05:12:22.298Z,6.59
2022-11-10T05:14:18.455Z,6.74
2022-11-10T05:16:18.385Z,6.95
2022-11-10T05:19:59.745Z,6.71
2022-11-10T05:21:59.561Z,6.4
2022-11-10T05:23:59.847Z,6.15
2022-11-10T05:25:59.569Z,6.39
2022-11-10T05:27:59.863Z,6.81
2022-11-10T05:29:59.592Z,7.03
2022-11-10T05:31:59.705Z,6.95
2022-11-10T05:35:05.588Z,6.56
2022-11-10T05:37:05.589Z,6.59
2022-11-10T05:39:05.653Z,6.89
2022-11-10T05:41:05.611Z,6.69
2022-11-10T05:43:05.625Z,6.63
2022-11-10T05:45:05.587Z,6.62
2022-11-10T05:47:05.586Z,6.65
2022-11-10T05:50:03.007Z,6.77
2022-11-10T05:52:02.825Z,6.86
2022-11-10T05:54:02.881Z,6.49
2022-11-10T05:56:02.912Z,6.75
2022-11-10T05:58:02.816Z,6.95
2022-11-10T06:00:04.094Z,7.12
2022-11-10T06:02:02.834Z,6.94
2022-11-10T06:05:05.010Z,7.05
2022-11-10T06:07:05.022Z,7.26
2022-11-10T06:09:04.963Z,7.27
2022-11-10T06:11:05.006Z,7.15
2022-11-10T06:13:04.956Z,6.99
2022-11-10T06:15:04.979Z,6.7
2022-11-10T06:17:05.110Z,6.87
2022-11-10T06:20:38.910Z,6.94
2022-11-10T06:22:38.940Z,6.93
2022-11-10T06:24:38.918Z,6.97
2022-11-10T06:26:38.922Z,6.96
2022-11-10T06:28:38.932Z,7.12
2022-11-10T06:30:38.898Z,7.17
2022-11-10T06:32:38.913Z,7.41
2022-11-10T06:35:57.010Z,7.62
2022-11-10T06:37:57.067Z,7.57
2022-11-10T06:39:56.998Z,7.46
2022-11-10T06:41:57.026Z,7.48
2022-11-10T06:43:57.007Z,7.41
2022-11-10T06:45:57.001Z,7.6
2022-11-10T06:47:57.039Z,7.63
2022-11-10T06:50:40.709Z,7.72
2022-11-10T06:52:40.795Z,7.9
2022-11-10T06:54:40.686Z,8.01
2022-11-10T06:56:40.694Z,7.97
2022-11-10T06:58:40.733Z,7.83
2022-11-10T07:00:41.061Z,7.79
2022-11-10T07:02:40.683Z,7.67
2022-11-10T07:06:11.867Z,7.75
2022-11-10T07:08:11.859Z,7.74
2022-11-10T07:10:11.890Z,7.79
2022-11-10T07:12:11.912Z,7.75
2022-11-10T07:14:11.872Z,7.58
2022-11-10T07:16:11.904Z,7.39
2022-11-10T07:18:11.917Z,7.28
2022-11-10T07:20:52.794Z,7.37
2022-11-10T07:22:52.925Z,7.5
2022-11-10T07:24:52.746Z,7.46
2022-11-10T07:26:52.799Z,7.48
2022-11-10T07:28:52.754Z,7.52
2022-11-10T07:30:52.814Z,7.53
2022-11-10T07:32:52.735Z,7.52
2022-11-10T07:35:46.188Z,7.67
2022-11-10T07:37:45.881Z,7.86
2022-11-10T07:39:45.939Z,7.95
2022-11-10T07:41:50.045Z,7.87
2022-11-10T07:43:45.936Z,7.79
2022-11-10T07:45:45.954Z,7.79
2022-11-10T07:47:45.843Z,7.89
2022-11-10T07:49:46.023Z,7.88
2022-11-10T07:51:25.903Z,7.91
2022-11-10T07:53:26.123Z,7.94
2022-11-10T07:55:25.925Z,8.07
2022-11-10T07:57:25.829Z,8.21
2022-11-10T07:59:25.859Z,7.95
2022-11-10T08:01:25.931Z,8.17
2022-11-10T08:03:26.163Z,8.38
2022-11-10T08:06:22.903Z,8.25
2022-11-10T08:08:22.700Z,8.32
2022-11-10T08:10:22.587Z,8.36
2022-11-10T08:12:22.630Z,8.46
2022-11-10T08:14:22.576Z,8.51
2022-11-10T08:16:22.588Z,8.5
2022-11-10T08:18:22.623Z,8.53
2022-11-10T08:21:35.708Z,8.37
2022-11-10T08:23:35.665Z,8.33
2022-11-10T08:25:35.895Z,8.25
2022-11-10T08:27:35.635Z,8.49
2022-11-10T08:29:35.625Z,8.65
2022-11-10T08:31:35.660Z,8.94
2022-11-10T08:33:35.649Z,8.93
2022-11-10T08:36:20.911Z,8.43
2022-11-10T08:38:20.877Z,8.43
2022-11-10T08:40:20.910Z,8.76
2022-11-10T08:42:20.869Z,9.08
2022-11-10T08:44:21.279Z,9.06
2022-11-10T08:46:20.851Z,8.76
2022-11-10T08:48:20.847Z,8.8
2022-11-10T08:50:20.901Z,8.77
2022-11-10T08:52:16.722Z,8.94
2022-11-10T08:54:16.770Z,9.02
2022-11-10T08:56:16.772Z,8.95
2022-11-10T08:58:16.718Z,8.92
2022-11-10T09:00:16.723Z,9.11
2022-11-10T09:02:16.762Z,8.96
2022-11-10T09:04:16.752Z,8.91
2022-11-10T09:07:36.698Z,9.25
2022-11-10T09:09:36.720Z,8.94
2022-11-10T09:11:36.676Z,9.09
2022-11-10T09:13:36.774Z,9.02
2022-11-10T09:15:36.706Z,8.92
2022-11-10T09:17:36.703Z,9.07
2022-11-10T09:19:36.792Z,9.03
2022-11-10T09:22:11.953Z,9.28
2022-11-10T09:24:11.958Z,9.43
2022-11-10T09:26:12.052Z,9.47
2022-11-10T09:28:11.940Z,9.37
2022-11-10T09:30:17.325Z,9.76
2022-11-10T09:32:11.955Z,9.66
2022-11-10T09:34:11.952Z,9.66
2022-11-10T09:37:52.267Z,9.74
2022-11-10T09:39:52.253Z,10.14
2022-11-10T09:41:52.322Z,10.27
2022-11-10T09:43:52.243Z,10.31
2022-11-10T09:45:52.247Z,10.37
2022-11-10T09:47:59.360Z,10.05
2022-11-10T09:49:52.239Z,10.16
2022-11-10T09:53:05.833Z,10.17
2022-11-10T09:55:05.925Z,10.4
2022-11-10T09:57:05.811Z,10.38
2022-11-10T09:59:05.803Z,10.18
2022-11-10T10:01:05.873Z,10.3
2022-11-10T10:03:05.789Z,10.22
2022-11-10T10:05:05.816Z,10.44
2022-11-10T10:07:19.896Z,10.48
2022-11-10T10:09:19.936Z,10.55
2022-11-10T10:11:19.863Z,10.78
2022-11-10T10:13:19.894Z,10.58
2022-11-10T10:15:19.855Z,10.59
2022-11-10T10:17:21.717Z,10.56
2022-11-10T10:19:19.861Z,10.84
2022-11-10T10:21:19.854Z,10.68
2022-11-10T10:23:14.408Z,10.36
2022-11-10T10:25:14.432Z,10.35
2022-11-10T10:27:14.409Z,10.85
2022-11-10T10:29:14.435Z,11.3
2022-11-10T10:31:14.410Z,11.29
2022-11-10T10:33:14.407Z,11.14
2022-11-10T10:35:14.462Z,10.91
2022-11-10T10:37:49.450Z,10.71
2022-11-10T10:39:49.423Z,10.76
2022-11-10T10:41:49.470Z,10.85
2022-11-10T10:43:49.461Z,11.38
2022-11-10T10:45:49.509Z,11.01
2022-11-10T10:47:49.458Z,10.83
2022-11-10T10:49:49.409Z,11.06
2022-11-10T10:53:34.440Z,11.14
2022-11-10T10:55:34.480Z,11.42
2022-11-10T10:57:34.433Z,11.4
2022-11-10T10:59:34.425Z,11.16
2022-11-10T11:01:34.518Z,11.48
2022-11-10T11:03:34.558Z,11.57
2022-11-10T11:05:34.437Z,10.97
2022-11-10T11:08:42.031Z,11.15
2022-11-10T11:10:42.095Z,11.34
2022-11-10T11:12:42.031Z,11.46
2022-11-10T11:14:45.941Z,11.39
2022-11-10T11:16:42.107Z,11.64
2022-11-10T11:18:42.015Z,11.83
2022-11-10T11:20:42.139Z,11.42
2022-11-10T11:23:15.133Z,11.12
2022-11-10T11:25:15.123Z,11.09
2022-11-10T11:27:15.168Z,11.41
2022-11-10T11:29:15.118Z,11.39
2022-11-10T11:31:15.162Z,11.09
2022-11-10T11:33:15.163Z,11.81
2022-11-10T11:35:15.160Z,12.01
2022-11-10T11:37:19.159Z,12.07
2022-11-10T11:38:32.937Z,11.67
2022-11-10T11:40:32.940Z,12.34
2022-11-10T11:42:32.977Z,12.9
2022-11-10T11:44:32.965Z,12.66
2022-11-10T11:46:32.912Z,12.32
2022-11-10T11:48:32.984Z,12.08
2022-11-10T11:50:32.909Z,12.98
2022-11-10T11:54:09.135Z,12.68
2022-11-10T11:56:09.057Z,12.98
2022-11-10T11:58:09.062Z,13.04
2022-11-10T12:00:09.106Z,13.19
2022-11-10T12:02:09.084Z,13.59
2022-11-10T12:04:09.083Z,13.77
2022-11-10T12:06:09.104Z,13.69
2022-11-10T12:09:01.431Z,13
2022-11-10T12:11:01.407Z,12.77
2022-11-10T12:13:01.444Z,12.45
2022-11-10T12:15:01.404Z,12.28
2022-11-10T12:17:01.397Z,11.89
2022-11-10T12:19:01.432Z,11.82
2022-11-10T12:21:01.422Z,12.32
2022-11-10T12:24:40.583Z,12.07
2022-11-10T12:26:40.532Z,12.54
2022-11-10T12:28:40.529Z,12.58
2022-11-10T12:30:40.536Z,12.89
2022-11-10T12:32:40.548Z,13.09
2022-11-10T12:34:40.529Z,13.23
2022-11-10T12:36:40.570Z,13.2
2022-11-10T12:39:33.383Z,13.29
2022-11-10T12:41:33.398Z,13.16
2022-11-10T12:43:33.393Z,12.89
2022-11-10T12:45:33.380Z,12.66
2022-11-10T12:47:33.359Z,12.54
2022-11-10T12:49:33.367Z,12.45
2022-11-10T12:51:33.361Z,12.47
2022-11-10T12:54:16.603Z,12.38
2022-11-10T12:56:13.378Z,12.32
2022-11-10T12:58:13.380Z,12.48
2022-11-10T13:00:18.186Z,12.38
2022-11-10T13:02:13.341Z,12.3
2022-11-10T13:04:13.341Z,12.61
2022-11-10T13:06:13.397Z,12.73
2022-11-10T13:08:13.341Z,12.73
2022-11-10T13:09:37.976Z,12.69
2022-11-10T13:11:37.887Z,12.75
2022-11-10T13:13:37.914Z,12.84
2022-11-10T13:15:37.871Z,12.77
2022-11-10T13:17:37.867Z,12.83
2022-11-10T13:19:37.908Z,12.79
2022-11-10T13:21:37.847Z,12.49
2022-11-10T13:25:11.125Z,12.65
2022-11-10T13:27:11.038Z,12.75
2022-11-10T13:29:11.070Z,12.78
2022-11-10T13:31:11.099Z,12.77
2022-11-10T13:33:11.038Z,12.72
2022-11-10T13:35:11.040Z,12.7
2022-11-10T13:37:11.096Z,12.55
2022-11-10T13:40:07.718Z,12.55
2022-11-10T13:42:07.807Z,12.54
2022-11-10T13:44:07.754Z,12.52
2022-11-10T13:46:07.740Z,12.31
2022-11-10T13:48:07.716Z,12.16
2022-11-10T13:50:07.858Z,12.1
2022-11-10T13:52:07.716Z,12.17
2022-11-10T13:55:23.710Z,12.16
2022-11-10T13:57:23.738Z,12.14
2022-11-10T13:59:23.709Z,12.04
2022-11-10T14:01:23.753Z,11.98
2022-11-10T14:03:23.808Z,12
2022-11-10T14:05:23.757Z,11.97
2022-11-10T14:07:23.705Z,11.96
2022-11-10T14:10:02.411Z,11.87
2022-11-10T14:12:02.426Z,11.82
2022-11-10T14:14:02.503Z,11.78
2022-11-10T14:16:02.395Z,11.69
2022-11-10T14:18:02.400Z,11.67
2022-11-10T14:20:04.439Z,11.62
2022-11-10T14:22:02.377Z,11.51
2022-11-10T14:24:02.597Z,11.41
2022-11-10T14:25:17.500Z,11.39
2022-11-10T14:27:17.503Z,11.34
2022-11-10T14:29:17.631Z,11.27
2022-11-10T14:31:17.526Z,11.16
2022-11-10T14:33:17.486Z,11.09
2022-11-10T14:35:17.482Z,11.01
2022-11-10T14:37:17.490Z,10.93
2022-11-10T14:39:17.493Z,10.87
2022-11-10T14:40:29.350Z,10.84
2022-11-10T14:42:29.325Z,10.77
2022-11-10T14:44:29.470Z,10.63
2022-11-10T14:46:29.339Z,10.64
2022-11-10T14:48:29.328Z,10.58
2022-11-10T14:50:29.309Z,10.52
2022-11-10T14:52:29.320Z,10.45
2022-11-10T14:54:29.350Z,10.3
2022-11-10T14:55:56.579Z,10.27
2022-11-10T14:57:56.511Z,10.19
2022-11-10T14:59:56.661Z,10.09
2022-11-10T15:01:56.574Z,9.99
2022-11-10T15:03:56.736Z,9.91
2022-11-10T15:05:56.608Z,9.79
2022-11-10T15:07:57.054Z,9.69
2022-11-10T15:10:52.873Z,9.69
2022-11-10T15:12:52.924Z,9.64
2022-11-10T15:14:52.970Z,9.53
2022-11-10T15:16:53.200Z,9.47
2022-11-10T15:18:53.213Z,9.4
2022-11-10T15:20:53.107Z,9.3
2022-11-10T15:22:52.878Z,9.22
2022-11-10T15:26:22.234Z,9.16
2022-11-10T15:28:22.531Z,9.11
2022-11-10T15:30:22.440Z,9.06
2022-11-10T15:32:22.328Z,9.06
2022-11-10T15:34:22.233Z,8.99
2022-11-10T15:36:22.214Z,8.89
2022-11-10T15:38:22.549Z,8.87
2022-11-10T15:41:31.283Z,8.83
2022-11-10T15:43:31.394Z,8.66
2022-11-10T15:45:31.429Z,8.72
2022-11-10T15:47:31.425Z,8.66
2022-11-10T15:49:31.309Z,8.59
2022-11-10T15:51:31.247Z,8.56
2022-11-10T15:53:31.277Z,8.53
2022-11-10T15:56:52.216Z,8.43
2022-11-10T15:58:52.208Z,8.5
2022-11-10T16:00:52.164Z,8.48
2022-11-10T16:02:52.327Z,8.45
2022-11-10T16:04:55.669Z,8.47
2022-11-10T16:06:52.275Z,8.4
2022-11-10T16:08:52.164Z,8.38
2022-11-10T16:12:17.039Z,8.27
2022-11-10T16:14:17.059Z,8.27
2022-11-10T16:16:17.009Z,8.22
2022-11-10T16:18:17.129Z,8.24
2022-11-10T16:20:17.049Z,8.22
2022-11-10T16:22:17.079Z,8.15
2022-11-10T16:24:16.991Z,8.15
2022-11-10T16:27:29.099Z,8.13
2022-11-10T16:29:29.172Z,8.12
2022-11-10T16:31:29.127Z,8.09
2022-11-10T16:33:29.236Z,8.07
2022-11-10T16:35:29.149Z,8.01
2022-11-10T16:37:31.797Z,7.99
2022-11-10T16:39:29.095Z,7.93
2022-11-10T16:42:08.261Z,7.9
2022-11-10T16:44:08.216Z,7.91
2022-11-10T16:46:08.268Z,7.88
2022-11-10T16:48:08.210Z,7.83
2022-11-10T16:50:08.332Z,7.83
2022-11-10T16:52:08.237Z,7.69
2022-11-10T16:54:08.272Z,7.85
2022-11-10T16:57:42.727Z,7.78
2022-11-10T16:59:42.733Z,7.75
2022-11-10T17:01:42.908Z,7.65
2022-11-10T17:03:42.720Z,7.63
2022-11-10T17:05:42.864Z,7.6
2022-11-10T17:07:42.699Z,7.6
2022-11-10T17:09:42.793Z,7.71
2022-11-10T17:12:03.011Z,7.68
2022-11-10T17:14:04.177Z,7.68
2022-11-10T17:16:02.963Z,7.65
2022-11-10T17:18:04.536Z,7.64
2022-11-10T17:20:02.927Z,7.63
2022-11-10T17:22:03.045Z,7.59
2022-11-10T17:24:02.991Z,7.59
2022-11-10T17:26:02.916Z,7.6
2022-11-10T17:27:45.412Z,7.61
2022-11-10T17:29:45.457Z,7.48
2022-11-10T17:31:45.416Z,7.57
2022-11-10T17:33:45.402Z,7.55
2022-11-10T17:35:45.407Z,7.56
2022-11-10T17:37:45.511Z,7.51
2022-11-10T17:39:45.426Z,7.54
2022-11-10T17:42:24.619Z,7.57
2022-11-10T17:44:24.581Z,7.59
2022-11-10T17:46:24.703Z,7.5
2022-11-10T17:48:24.644Z,7.54
2022-11-10T17:50:24.603Z,7.54
2022-11-10T17:52:24.738Z,7.49
2022-11-10T17:54:24.724Z,7.46
2022-11-10T17:56:24.736Z,7.43
2022-11-10T17:58:10.035Z,7.41
2022-11-10T18:00:09.987Z,7.38
2022-11-10T18:02:10.004Z,7.39
2022-11-10T18:04:10.018Z,7.4
2022-11-10T18:06:09.982Z,7.43
2022-11-10T18:08:09.984Z,7.47
2022-11-10T18:10:10.123Z,7.39
2022-11-10T18:13:25.725Z,7.36
2022-11-10T18:15:25.540Z,7.39
2022-11-10T18:17:25.544Z,7.39
2022-11-10T18:19:25.716Z,7.38
2022-11-10T18:21:25.472Z,7.31
2022-11-10T18:23:26.025Z,7.27
2022-11-10T18:25:25.901Z,7.31
2022-11-10T18:27:58.134Z,7.31
2022-11-10T18:29:58.392Z,7.33
2022-11-10T18:31:58.082Z,7.32
2022-11-10T18:33:58.072Z,7.28
2022-11-10T18:35:58.142Z,7.16
2022-11-10T18:37:58.051Z,7.18
2022-11-10T18:39:58.053Z,7.17
2022-11-10T18:41:58.196Z,7.1
2022-11-10T18:43:12.201Z,7.14
2022-11-10T18:45:12.234Z,7.1
2022-11-10T18:47:12.179Z,6.97
2022-11-10T18:49:12.197Z,6.89
2022-11-10T18:51:12.150Z,7.01
2022-11-10T18:53:12.358Z,7.03
2022-11-10T18:55:12.123Z,7.05
2022-11-10T18:58:39.763Z,6.95
2022-11-10T19:00:39.683Z,7.02
2022-11-10T19:02:40.109Z,7.05
2022-11-10T19:04:39.653Z,7.07
2022-11-10T19:06:39.760Z,7.08
2022-11-10T19:08:39.586Z,7.01
2022-11-10T19:10:39.596Z,7.01
2022-11-10T19:13:59.467Z,6.97
2022-11-10T19:15:59.152Z,6.94
2022-11-10T19:17:59.156Z,6.95
2022-11-10T19:19:59.166Z,6.96
2022-11-10T19:21:59.314Z,6.82
2022-11-10T19:23:59.147Z,6.89
2022-11-10T19:25:59.172Z,6.88
2022-11-10T19:28:41.441Z,6.81
2022-11-10T19:30:41.668Z,6.82
2022-11-10T19:32:41.649Z,6.82
2022-11-10T19:34:41.475Z,6.82
2022-11-10T19:36:41.540Z,6.79
2022-11-10T19:38:41.506Z,6.82
2022-11-10T19:40:41.432Z,6.84
2022-11-10T19:43:48.993Z,6.63
2022-11-10T19:45:48.750Z,6.72
2022-11-10T19:47:48.788Z,6.76
2022-11-10T19:49:48.680Z,6.74
2022-11-10T19:51:48.806Z,6.79
2022-11-10T19:53:48.683Z,6.78
2022-11-10T19:55:48.637Z,6.86
2022-11-10T19:57:48.763Z,6.78
2022-11-10T19:59:36.676Z,6.74
2022-11-10T20:01:36.887Z,6.75
2022-11-10T20:03:36.646Z,6.78
2022-11-10T20:05:36.729Z,6.74
2022-11-10T20:07:36.652Z,6.66
2022-11-10T20:09:36.638Z,6.57
2022-11-10T20:11:36.645Z,6.68
2022-11-10T20:14:33.898Z,6.58
2022-11-10T20:16:33.855Z,6.47
2022-11-10T20:18:34.025Z,6.56
2022-11-10T20:20:33.854Z,6.57
2022-11-10T20:22:33.938Z,6.7
2022-11-10T20:24:33.867Z,6.71
2022-11-10T20:26:33.850Z,6.71
2022-11-10T20:29:14.146Z,6.75
2022-11-10T20:31:14.141Z,6.72
2022-11-10T20:33:14.164Z,6.74
2022-11-10T20:35:14.253Z,6.71
2022-11-10T20:37:14.185Z,6.66
2022-11-10T20:39:14.135Z,6.55
2022-11-10T20:41:14.173Z,6.41
2022-11-10T20:43:14.129Z,6.56
2022-11-10T20:44:44.125Z,6.53
2022-11-10T20:46:59.633Z,6.36
2022-11-10T20:48:44.096Z,6.36
2022-11-10T20:50:44.225Z,6.44
2022-11-10T20:52:44.122Z,6.51
2022-11-10T20:54:44.097Z,6.47
2022-11-10T20:56:44.172Z,6.6
2022-11-10T21:00:00.950Z,6.51
2022-11-10T21:02:00.988Z,6.5
2022-11-10T21:04:00.966Z,6.5
2022-11-10T21:06:01.059Z,6.58
2022-11-10T21:08:00.940Z,6.44
2022-11-10T21:10:00.910Z,6.24
2022-11-10T21:12:00.953Z,6.2
2022-11-10T21:15:43.783Z,6.2
2022-11-10T21:17:44.273Z,6.32
2022-11-10T21:19:43.364Z,6.3
2022-11-10T21:21:43.481Z,6.3
2022-11-10T21:23:43.418Z,6.35
2022-11-10T21:25:43.397Z,6.25
2022-11-10T21:27:43.425Z,6.2
2022-11-10T21:30:43.303Z,6.16
2022-11-10T21:32:43.304Z,6.18
2022-11-10T21:34:43.338Z,6.12
2022-11-10T21:36:43.299Z,6.07
2022-11-10T21:38:43.413Z,6.09
2022-11-10T21:40:43.286Z,6.05
2022-11-10T21:42:43.342Z,6.03
2022-11-10T21:45:22.944Z,6
2022-11-10T21:47:22.989Z,6.08
2022-11-10T21:49:22.937Z,5.9
2022-11-10T21:51:22.930Z,5.87
2022-11-10T21:53:23.393Z,5.82
2022-11-10T21:55:23.091Z,5.7
2022-11-10T21:57:22.968Z,5.73
2022-11-10T22:00:54.312Z,5.8
2022-11-10T22:02:54.317Z,5.85
2022-11-10T22:04:54.279Z,5.85
2022-11-10T22:06:54.295Z,5.81
2022-11-10T22:08:54.355Z,5.81
2022-11-10T22:10:54.389Z,5.81
2022-11-10T22:12:54.309Z,5.78
2022-11-10T22:16:15.745Z,5.84
2022-11-10T22:18:15.865Z,5.72
2022-11-10T22:20:15.744Z,5.68
2022-11-10T22:22:15.727Z,5.67
2022-11-10T22:24:15.742Z,5.71
2022-11-10T22:26:15.902Z,5.73
2022-11-10T22:28:15.731Z,5.77
2022-11-10T22:30:38.808Z,5.38
2022-11-10T22:32:38.736Z,5.39
2022-11-10T22:34:38.790Z,5.4
2022-11-10T22:36:38.743Z,5.35
2022-11-10T22:38:38.722Z,5.48
2022-11-10T22:40:38.754Z,5.47
2022-11-10T22:42:38.850Z,5.47
2022-11-10T22:44:38.738Z,5.52
2022-11-10T22:46:43.199Z,5.4
2022-11-10T22:48:43.080Z,5.33
2022-11-10T22:50:43.164Z,5.31
2022-11-10T22:52:43.025Z,5.33
2022-11-10T22:54:42.896Z,5.27
2022-11-10T22:56:42.908Z,5.18
2022-11-10T22:58:43.017Z,5.1
2022-11-10T23:01:06.766Z,5.08
2022-11-10T23:03:06.780Z,5.11
2022-11-10T23:05:06.737Z,5.14
2022-11-10T23:07:06.795Z,5.12
2022-11-10T23:09:06.738Z,5.03
2022-11-10T23:11:06.732Z,4.98
2022-11-10T23:13:06.755Z,4.99
2022-11-10T23:15:06.894Z,4.98
2022-11-10T23:16:11.716Z,5.02
2022-11-10T23:18:11.712Z,5.05
2022-11-10T23:20:11.750Z,5.04
2022-11-10T23:22:11.710Z,4.98
2022-11-10T23:24:11.764Z,5.01
2022-11-10T23:26:11.699Z,4.97
2022-11-10T23:28:11.697Z,4.91
2022-11-10T23:30:11.877Z,4.86
2022-11-10T23:31:19.349Z,4.81
2022-11-10T23:33:19.346Z,4.55
2022-11-10T23:35:19.397Z,4.72
2022-11-10T23:37:19.366Z,4.91
2022-11-10T23:39:19.343Z,4.88
2022-11-10T23:41:19.404Z,5.02
2022-11-10T23:43:19.329Z,4.95
2022-11-10T23:45:19.459Z,5.04
2022-11-10T23:46:55.195Z,5.2
2022-11-10T23:48:55.187Z,5.28
2022-11-10T23:50:55.198Z,5.17
2022-11-10T23:52:55.193Z,5.14
2022-11-10T23:54:55.177Z,5.26
2022-11-10T23:56:55.165Z,5.3
2022-11-10T23:58:55.182Z,5.33
